Hovedside
METAR-TAF:

METAR-TAF

Lufthavner :

Mersa Matruh, Egypt

breddegrad: 31-20N, lengdegrad: 027-13E, høyde over havet: 25 m

Gjeldene værobservasjon

Denne rapporten ble laget for 1 time og 7 minutter siden, klokken 09:00 UTC
Vind 9 kt fra Nordvest
Temperatur 25°C
Luftfuktighet 41%
Trykk 1017 hPa
Sikt 10 km eller mer
ingen skyer under 1500 m og ingen bygeskyer

METAR: HEMM 250900Z 31009KT CAVOK 25/11 Q1017 NOSIG

Tid: 12:07 (10:07 UTC)

Varsel

Denne rapporten ble laget for 5 timer og 7 minutter siden, klokken 05:00 UTC
Varsel gyldig fra 25. klokken 06 UTC til 26. klokken 12 UTC
Vind 8 kt fra Nord
Sikt 10 km eller mer
ingen skyer under 1500 m og ingen bygeskyer

TAF: HEMM 250500Z 2506/2612 35008KT CAVOK

Værobservasjoner og værvarsel for over 4000 flyplasser (METAR- og TAF-rapporter).

Tilgjengelige stasjoner er representert av de røde og gule prikkene på kartet.

Hold musepekeren over prikken for å se navnet på stasjonen.

Klikk så for å se værobservasjoner og -varsler.

For å forandre kartet kan du klikke på den grønne knappen med svart kryss for å zoome inn, på den grønne knappen med strek for å zoome ut, eller på de grønne pilene for å se tilstøtende kart.


METAR-TAF: